createdAt,value
2022-07-26T00:00:48.345Z,10.75
2022-07-26T00:07:35.979Z,10.75
2022-07-26T00:10:45.192Z,10.50
2022-07-26T00:13:47.759Z,13.25
2022-07-26T00:16:50.279Z,8.75
2022-07-26T00:19:52.570Z,10.00
2022-07-26T00:22:55.319Z,11.75
2022-07-26T00:25:57.737Z,10.50
2022-07-26T00:29:00.268Z,11.75
2022-07-26T00:32:02.900Z,10.25
2022-07-26T00:35:06.573Z,10.25
2022-07-26T00:38:10.838Z,10.75
2022-07-26T00:41:13.880Z,11.25
2022-07-26T00:44:19.619Z,10.75
2022-07-26T00:47:22.249Z,12.25
2022-07-26T00:50:49.849Z,14.00
2022-07-26T00:53:54.093Z,12.50
2022-07-26T00:56:56.956Z,11.00
2022-07-26T01:00:01.238Z,11.00
2022-07-26T01:03:03.451Z,11.25
2022-07-26T01:06:06.158Z,10.75
2022-07-26T01:09:08.773Z,10.50
2022-07-26T01:12:11.801Z,11.25
2022-07-26T01:15:15.249Z,13.00
2022-07-26T01:18:17.947Z,13.00
2022-07-26T01:21:22.211Z,10.75
2022-07-26T01:24:25.034Z,12.75
2022-07-26T01:27:33.521Z,12.75
2022-07-26T01:30:36.460Z,10.50
2022-07-26T01:33:38.652Z,13.25
2022-07-26T01:36:41.029Z,13.25
2022-07-26T01:39:44.262Z,13.00
2022-07-26T01:42:47.082Z,14.00
2022-07-26T01:45:49.207Z,12.00
2022-07-26T01:48:52.005Z,13.00
2022-07-26T01:51:54.338Z,12.75
2022-07-26T01:54:56.848Z,14.00
2022-07-26T01:57:59.043Z,14.50
2022-07-26T02:01:01.463Z,14.00
2022-07-26T02:04:03.947Z,14.50
2022-07-26T02:07:26.755Z,13.50
2022-07-26T02:10:47.523Z,13.00
2022-07-26T02:13:53.063Z,12.75
2022-07-26T02:17:00.249Z,13.25
2022-07-26T02:20:03.041Z,15.00
2022-07-26T02:23:05.500Z,14.00
2022-07-26T02:26:07.889Z,14.25
2022-07-26T02:29:09.976Z,14.25
2022-07-26T02:32:12.365Z,13.25
2022-07-26T02:35:14.458Z,14.25
2022-07-26T02:38:17.413Z,15.00
2022-07-26T02:41:19.677Z,14.00
2022-07-26T02:44:23.066Z,16.00
2022-07-26T02:47:25.290Z,14.50
2022-07-26T02:50:29.270Z,13.00
2022-07-26T02:53:31.289Z,14.00
2022-07-26T02:56:33.775Z,14.75
2022-07-26T02:59:36.949Z,15.00
2022-07-26T03:02:40.460Z,14.00
2022-07-26T03:05:42.727Z,14.25
2022-07-26T03:08:45.178Z,13.75
2022-07-26T03:11:47.400Z,13.00
2022-07-26T03:14:49.996Z,14.50
2022-07-26T03:17:52.296Z,12.00
2022-07-26T03:20:55.373Z,14.25
2022-07-26T03:23:57.800Z,15.00
2022-07-26T03:27:00.215Z,13.00
2022-07-26T03:30:02.406Z,13.75
2022-07-26T03:33:05.106Z,0.00
2022-07-26T03:36:11.467Z,14.25
2022-07-26T03:39:17.771Z,14.00
2022-07-26T03:42:34.738Z,14.25
2022-07-26T03:45:48.488Z,14.75
2022-07-26T03:48:50.729Z,13.00
2022-07-26T03:51:53.184Z,13.25
2022-07-26T03:54:55.231Z,14.00
2022-07-26T03:57:57.786Z,15.00
2022-07-26T04:01:00.061Z,12.25
2022-07-26T04:04:03.077Z,12.75
2022-07-26T04:07:05.161Z,14.00
2022-07-26T04:10:08.304Z,15.00
2022-07-26T04:13:10.447Z,14.25
2022-07-26T04:16:16.372Z,15.00
2022-07-26T04:19:47.284Z,12.25
2022-07-26T04:22:49.679Z,14.00
2022-07-26T04:25:51.847Z,14.50
2022-07-26T04:28:54.462Z,13.00
2022-07-26T04:31:56.639Z,15.00
2022-07-26T04:34:58.888Z,12.25
2022-07-26T04:38:02.461Z,13.25
2022-07-26T04:41:05.191Z,14.75
2022-07-26T04:44:07.737Z,13.25
2022-07-26T04:47:10.260Z,14.25
2022-07-26T04:50:13.131Z,14.00
2022-07-26T04:53:17.739Z,14.00
2022-07-26T04:56:19.776Z,14.00
2022-07-26T04:59:22.210Z,14.00
2022-07-26T05:02:43.221Z,12.00
2022-07-26T05:05:45.849Z,15.50
2022-07-26T05:08:48.035Z,12.75
2022-07-26T05:11:51.380Z,12.75
2022-07-26T05:14:53.899Z,12.25
2022-07-26T05:17:59.462Z,13.00
2022-07-26T05:21:20.041Z,14.00
2022-07-26T05:24:23.274Z,14.00
2022-07-26T05:27:25.700Z,13.00
2022-07-26T05:30:28.623Z,12.50
2022-07-26T05:33:31.253Z,11.00
2022-07-26T05:36:35.076Z,13.50
2022-07-26T05:39:37.493Z,13.00
2022-07-26T05:42:39.867Z,13.00
2022-07-26T05:45:42.017Z,12.33
2022-07-26T05:48:44.331Z,12.00
2022-07-26T05:51:46.610Z,11.33
2022-07-26T05:54:49.404Z,12.33
2022-07-26T05:57:52.553Z,14.00
2022-07-26T06:00:55.419Z,10.00
2022-07-26T06:03:59.349Z,11.00
2022-07-26T06:07:02.784Z,10.67
2022-07-26T06:10:06.585Z,8.33
2022-07-26T06:13:09.361Z,11.00
2022-07-26T06:16:15.304Z,12.00
2022-07-26T06:19:23.737Z,10.33
2022-07-26T06:22:29.593Z,11.00
2022-07-26T06:25:36.269Z,11.33
2022-07-26T06:28:40.121Z,10.67
2022-07-26T06:40:19.731Z,11.33
2022-07-26T06:44:27.691Z,11.00
2022-07-26T06:47:38.384Z,10.00
2022-07-26T06:50:52.890Z,10.00
2022-07-26T06:58:36.649Z,10.00
2022-07-26T07:01:57.477Z,10.00
2022-07-26T07:24:20.268Z,11.33
2022-07-26T07:27:24.653Z,10.00
2022-07-26T07:30:31.698Z,11.00
2022-07-26T07:33:43.682Z,9.00
2022-07-26T07:37:07.767Z,8.00
2022-07-26T07:40:12.892Z,12.33
2022-07-26T07:43:15.527Z,8.67
2022-07-26T07:46:18.731Z,8.67
2022-07-26T07:49:22.553Z,10.33
2022-07-26T07:52:29.196Z,9.33
2022-07-26T07:55:43.963Z,10.67
2022-07-26T07:58:49.985Z,10.33
2022-07-26T08:01:55.446Z,9.33
2022-07-26T08:05:03.096Z,10.33
2022-07-26T08:08:17.160Z,10.67
2022-07-26T08:11:20.094Z,11.33
2022-07-26T08:14:23.257Z,10.67
2022-07-26T08:18:36.457Z,10.00
2022-07-26T08:21:37.478Z,11.00
2022-07-26T08:24:40.713Z,9.33
2022-07-26T08:27:43.493Z,9.67
2022-07-26T08:30:46.168Z,11.00
2022-07-26T08:33:48.749Z,11.33
2022-07-26T08:37:15.398Z,11.00
2022-07-26T08:40:13.502Z,11.33
2022-07-26T08:43:16.083Z,11.33
2022-07-26T08:46:24.475Z,11.33
2022-07-26T08:49:28.354Z,11.33
2022-07-26T08:52:30.604Z,10.33
2022-07-26T08:55:56.804Z,10.00
2022-07-26T08:58:58.226Z,10.00
2022-07-26T09:02:07.044Z,11.00
2022-07-26T09:05:09.813Z,10.67
2022-07-26T09:08:29.079Z,9.00
2022-07-26T09:11:33.304Z,11.67
2022-07-26T09:14:37.612Z,12.33
2022-07-26T09:17:46.014Z,12.33
2022-07-26T09:20:48.796Z,12.33
2022-07-26T09:23:51.422Z,10.67
2022-07-26T09:26:58.880Z,9.67
2022-07-26T09:30:07.173Z,10.67
2022-07-26T09:33:10.006Z,10.33
2022-07-26T09:36:12.397Z,11.33
2022-07-26T09:39:15.517Z,12.00
2022-07-26T09:42:28.641Z,11.33
2022-07-26T09:45:34.373Z,11.00
2022-07-26T09:49:09.330Z,12.33
2022-07-26T09:52:02.205Z,11.67
2022-07-26T09:55:06.346Z,11.33
2022-07-26T09:58:19.508Z,12.00
2022-07-26T10:01:23.901Z,10.67
2022-07-26T10:04:27.241Z,12.33
2022-07-26T10:07:29.831Z,10.33
2022-07-26T10:10:40.541Z,11.67
2022-07-26T10:13:43.239Z,10.33
2022-07-26T10:16:45.621Z,12.33
2022-07-26T10:19:48.589Z,10.33
2022-07-26T10:22:51.276Z,9.67
2022-07-26T10:25:53.443Z,13.67
2022-07-26T10:28:56.021Z,10.00
2022-07-26T10:32:01.378Z,12.67
2022-07-26T10:35:44.857Z,12.33
2022-07-26T10:39:00.906Z,12.00
2022-07-26T10:42:07.119Z,11.33
2022-07-26T10:45:22.863Z,11.00
2022-07-26T10:48:25.297Z,9.67
2022-07-26T10:51:31.703Z,11.00
2022-07-26T10:54:56.835Z,13.00
2022-07-26T10:57:59.451Z,12.33
2022-07-26T11:01:04.188Z,12.33
2022-07-26T11:04:08.884Z,12.67
2022-07-26T11:07:12.937Z,11.00
2022-07-26T11:10:15.831Z,13.00
2022-07-26T11:13:23.822Z,12.00
2022-07-26T11:16:26.014Z,12.00
2022-07-26T11:19:29.346Z,13.33
2022-07-26T11:22:32.957Z,12.00
2022-07-26T11:25:35.431Z,13.33
2022-07-26T11:29:01.244Z,12.00
2022-07-26T11:32:23.839Z,14.67
2022-07-26T11:35:30.236Z,13.33
2022-07-26T11:38:49.471Z,15.00
2022-07-26T11:42:00.818Z,15.67
2022-07-26T11:45:03.485Z,16.67
2022-07-26T11:48:06.138Z,14.33
2022-07-26T11:51:18.324Z,16.00
2022-07-26T11:54:22.143Z,15.00
2022-07-26T11:57:32.023Z,16.67
2022-07-26T12:00:34.963Z,14.33
2022-07-26T12:03:38.721Z,13.67
2022-07-26T12:06:41.032Z,13.67
2022-07-26T12:09:47.972Z,16.00
2022-07-26T12:12:50.896Z,16.33
2022-07-26T12:15:53.696Z,17.67
2022-07-26T12:18:56.061Z,18.00
2022-07-26T12:22:08.521Z,17.67
2022-07-26T12:25:25.150Z,18.25
2022-07-26T12:28:46.430Z,17.25
2022-07-26T12:32:01.967Z,16.67
2022-07-26T12:35:09.632Z,19.00
2022-07-26T12:38:11.776Z,16.00
2022-07-26T12:41:37.260Z,20.00
2022-07-26T12:44:39.465Z,18.00
2022-07-26T12:47:43.362Z,21.00
2022-07-26T12:50:45.428Z,17.50
2022-07-26T12:53:47.839Z,19.00
2022-07-26T12:56:49.915Z,20.00
2022-07-26T12:59:52.618Z,15.00
2022-07-26T13:02:56.026Z,18.00
2022-07-26T13:05:58.511Z,18.50
2022-07-26T13:09:01.066Z,20.00
2022-07-26T13:12:05.101Z,20.00
2022-07-26T13:15:07.783Z,20.00
2022-07-26T13:18:10.113Z,18.00
2022-07-26T13:21:12.358Z,17.75
2022-07-26T13:24:17.890Z,19.00
2022-07-26T13:27:22.512Z,16.75
2022-07-26T13:30:24.985Z,18.50
2022-07-26T13:33:27.331Z,16.75
2022-07-26T13:36:29.777Z,17.00
2022-07-26T13:39:32.012Z,17.00
2022-07-26T13:42:34.414Z,16.75
2022-07-26T13:45:36.646Z,15.75
2022-07-26T13:48:48.093Z,17.25
2022-07-26T13:52:01.365Z,17.75
2022-07-26T13:55:04.002Z,14.75
2022-07-26T13:58:10.295Z,15.00
2022-07-26T14:01:12.967Z,14.75
2022-07-26T14:04:16.075Z,14.33
2022-07-26T14:07:18.849Z,14.75
2022-07-26T14:10:22.411Z,14.50
2022-07-26T14:13:24.794Z,14.75
2022-07-26T14:16:27.896Z,13.00
2022-07-26T14:19:30.423Z,13.00
2022-07-26T14:22:32.607Z,12.33
2022-07-26T14:25:35.075Z,12.00
2022-07-26T14:28:37.435Z,12.67
2022-07-26T14:31:40.020Z,14.00
2022-07-26T14:34:42.357Z,10.00
2022-07-26T14:37:45.789Z,10.00
2022-07-26T14:40:48.233Z,10.00
2022-07-26T14:43:55.480Z,11.00
2022-07-26T14:46:58.034Z,9.33
2022-07-26T14:50:05.851Z,10.00
2022-07-26T14:53:11.217Z,8.00
2022-07-26T14:56:14.042Z,7.67
2022-07-26T14:59:16.999Z,7.00
2022-07-26T15:02:19.578Z,6.33
2022-07-26T15:05:23.325Z,6.00
2022-07-26T15:08:26.124Z,7.00
2022-07-26T15:11:28.324Z,5.00
2022-07-26T15:14:30.847Z,6.00
2022-07-26T15:17:33.449Z,6.00
2022-07-26T15:20:39.898Z,5.00
2022-07-26T15:23:42.045Z,5.67
2022-07-26T15:26:46.885Z,5.00
2022-07-26T15:29:50.784Z,6.33
2022-07-26T15:32:54.549Z,6.00
2022-07-26T15:35:56.744Z,5.33
2022-07-26T15:39:05.211Z,6.00
2022-07-26T15:42:18.122Z,4.33
2022-07-26T15:45:21.900Z,6.00
2022-07-26T15:48:24.193Z,6.00
2022-07-26T15:51:26.737Z,6.00
2022-07-26T15:54:28.879Z,5.33
2022-07-26T15:57:31.413Z,6.00
2022-07-26T16:00:33.614Z,7.00
2022-07-26T16:03:36.374Z,7.33
2022-07-26T16:06:40.254Z,5.67
2022-07-26T16:09:42.718Z,6.67
2022-07-26T16:12:44.766Z,7.67
2022-07-26T16:15:47.739Z,6.67
2022-07-26T16:18:49.925Z,6.00
2022-07-26T16:21:52.195Z,7.00
2022-07-26T16:24:54.467Z,7.00
2022-07-26T16:27:56.987Z,7.00
2022-07-26T16:31:00.602Z,7.00
2022-07-26T16:34:03.138Z,7.00
2022-07-26T16:37:06.595Z,6.00
2022-07-26T16:40:09.844Z,7.00
2022-07-26T16:43:12.269Z,7.33
2022-07-26T16:46:14.736Z,7.00
2022-07-26T16:49:17.378Z,7.00
2022-07-26T16:52:19.869Z,6.00
2022-07-26T16:55:22.090Z,6.33
2022-07-26T16:58:24.611Z,7.33
2022-07-26T17:01:26.836Z,8.00
2022-07-26T17:04:29.295Z,7.00
2022-07-26T17:07:32.101Z,6.00
2022-07-26T17:10:34.458Z,6.67
2022-07-26T17:13:36.729Z,6.67
2022-07-26T17:16:40.247Z,6.00
2022-07-26T17:19:42.620Z,7.33
2022-07-26T17:22:45.295Z,4.00
2022-07-26T17:25:47.753Z,8.00
2022-07-26T17:28:50.318Z,10.50
2022-07-26T17:31:53.042Z,11.00
2022-07-26T17:34:55.648Z,12.00
2022-07-26T17:38:10.229Z,13.75
2022-07-26T17:41:18.329Z,13.00
2022-07-26T17:44:22.165Z,12.25
2022-07-26T17:47:29.384Z,13.50
2022-07-26T17:50:39.326Z,11.75
2022-07-26T17:53:42.858Z,12.75
2022-07-26T17:56:44.930Z,11.50
2022-07-26T17:59:47.174Z,12.00
2022-07-26T18:02:49.329Z,10.50
2022-07-26T18:05:51.738Z,12.00
2022-07-26T18:08:53.778Z,11.00
2022-07-26T18:11:57.164Z,10.25
2022-07-26T18:15:00.065Z,11.75
2022-07-26T18:18:02.622Z,11.00
2022-07-26T18:21:04.843Z,9.75
2022-07-26T18:24:16.972Z,10.00
2022-07-26T18:27:19.759Z,10.25
2022-07-26T18:30:22.266Z,10.25
2022-07-26T18:33:24.523Z,10.00
2022-07-26T18:36:29.330Z,10.00
2022-07-26T18:39:33.022Z,10.75
2022-07-26T18:42:37.057Z,9.25
2022-07-26T18:45:39.484Z,9.25
2022-07-26T18:48:43.026Z,9.00
2022-07-26T18:51:45.720Z,9.50
2022-07-26T18:54:53.269Z,9.00
2022-07-26T18:57:55.474Z,8.00
2022-07-26T19:00:58.049Z,7.50
2022-07-26T19:04:04.670Z,9.00
2022-07-26T19:07:09.063Z,9.00
2022-07-26T19:10:12.007Z,7.75
2022-07-26T19:13:14.556Z,10.00
2022-07-26T19:16:17.267Z,9.00
2022-07-26T19:19:21.858Z,8.50
2022-07-26T19:22:24.971Z,7.75
2022-07-26T19:25:27.791Z,10.00
2022-07-26T19:28:30.359Z,8.75
2022-07-26T19:31:32.958Z,7.00
2022-07-26T19:34:35.780Z,9.50
2022-07-26T19:37:38.223Z,7.25
2022-07-26T19:40:41.024Z,9.25
2022-07-26T19:43:43.498Z,10.00
2022-07-26T19:46:47.679Z,9.75
2022-07-26T19:49:50.269Z,8.75
2022-07-26T19:52:52.525Z,10.00
2022-07-26T19:55:56.072Z,9.75
2022-07-26T19:59:02.405Z,9.75
2022-07-26T20:02:11.117Z,11.25
2022-07-26T20:05:13.689Z,10.25
2022-07-26T20:08:16.376Z,8.75
2022-07-26T20:11:22.559Z,9.25
2022-07-26T20:14:25.354Z,9.00
2022-07-26T20:17:33.371Z,9.00
2022-07-26T20:20:43.016Z,10.00
2022-07-26T20:23:45.560Z,9.00
2022-07-26T20:26:48.139Z,10.00
2022-07-26T20:29:50.785Z,11.00
2022-07-26T20:32:54.086Z,9.75
2022-07-26T20:35:56.445Z,10.25
2022-07-26T20:39:00.252Z,9.00
2022-07-26T20:42:02.788Z,8.00
2022-07-26T20:45:12.746Z,8.25
2022-07-26T20:48:15.370Z,8.75
2022-07-26T20:51:19.038Z,7.75
2022-07-26T20:54:25.947Z,7.00
2022-07-26T20:57:28.453Z,8.25
2022-07-26T21:00:30.627Z,7.00
2022-07-26T21:03:35.095Z,9.50
2022-07-26T21:06:37.325Z,8.00
2022-07-26T21:09:40.035Z,8.50
2022-07-26T21:12:42.774Z,9.00
2022-07-26T21:15:45.055Z,9.50
2022-07-26T21:18:52.639Z,11.50
2022-07-26T21:21:57.153Z,8.50
2022-07-26T21:24:59.813Z,8.75
2022-07-26T21:28:02.367Z,9.25
2022-07-26T21:31:04.546Z,11.50
2022-07-26T21:34:07.089Z,10.00
2022-07-26T21:37:09.360Z,9.25
2022-07-26T21:40:12.235Z,8.75
2022-07-26T21:43:14.553Z,8.75
2022-07-26T21:46:17.149Z,9.00
2022-07-26T21:49:19.587Z,8.00
2022-07-26T21:52:22.133Z,9.00
2022-07-26T21:55:24.589Z,9.00
2022-07-26T21:58:28.131Z,11.00
2022-07-26T22:01:30.486Z,10.25
2022-07-26T22:04:33.178Z,11.50
2022-07-26T22:07:35.267Z,10.00
2022-07-26T22:10:42.901Z,8.25
2022-07-26T22:13:47.215Z,9.00
2022-07-26T22:16:49.902Z,9.25
2022-07-26T22:19:52.056Z,10.25
2022-07-26T22:22:54.522Z,10.25
2022-07-26T22:25:59.056Z,11.25
2022-07-26T22:29:02.121Z,8.75
2022-07-26T22:32:04.788Z,13.75
2022-07-26T22:35:07.644Z,11.75
2022-07-26T22:38:11.118Z,11.75
2022-07-26T22:41:13.569Z,10.75
2022-07-26T22:44:15.771Z,11.25
2022-07-26T22:47:18.306Z,10.25
2022-07-26T22:50:20.640Z,13.00
2022-07-26T22:53:23.080Z,13.25
2022-07-26T22:56:25.444Z,11.00
2022-07-26T22:59:27.834Z,11.00
2022-07-26T23:02:29.982Z,7.50
2022-07-26T23:05:45.633Z,11.00
2022-07-26T23:08:49.615Z,10.00
2022-07-26T23:11:51.967Z,8.75
2022-07-26T23:14:54.170Z,12.00
2022-07-26T23:17:56.572Z,13.00
2022-07-26T23:20:58.897Z,9.50
2022-07-26T23:24:01.300Z,12.00
2022-07-26T23:27:04.029Z,11.50
2022-07-26T23:30:06.888Z,11.75
2022-07-26T23:33:09.067Z,10.75
2022-07-26T23:36:11.368Z,16.00
2022-07-26T23:39:14.134Z,14.00
2022-07-26T23:42:16.741Z,14.00
2022-07-26T23:45:19.200Z,16.00
2022-07-26T23:48:22.597Z,13.00
2022-07-26T23:51:25.093Z,15.50
2022-07-26T23:54:27.489Z,13.50
2022-07-26T23:57:29.705Z,14.00
